sensor_id;sensor_type;location;lat;lon;timestamp;pressure;altitude;pressure_sealevel;temperature;humidity
15694;BME280;7947;48.834;9.132;2022-11-20T00:02:36;97701.88;;;6.27;97.88
15694;BME280;7947;48.834;9.132;2022-11-20T00:05:40;97695.22;;;6.24;97.70
15694;BME280;7947;48.834;9.132;2022-11-20T00:08:43;97688.53;;;6.22;98.16
15694;BME280;7947;48.834;9.132;2022-11-20T00:11:46;97693.91;;;6.27;98.67
15694;BME280;7947;48.834;9.132;2022-11-20T00:14:49;97698.69;;;6.25;99.00
15694;BME280;7947;48.834;9.132;2022-11-20T00:17:52;97695.22;;;6.24;98.77
15694;BME280;7947;48.834;9.132;2022-11-20T00:21:01;97698.41;;;6.26;98.69
15694;BME280;7947;48.834;9.132;2022-11-20T00:24:05;97699.50;;;6.30;98.55
15694;BME280;7947;48.834;9.132;2022-11-20T00:27:07;97691.81;;;6.34;98.58
15694;BME280;7947;48.834;9.132;2022-11-20T00:30:10;97695.50;;;6.33;98.79
15694;BME280;7947;48.834;9.132;2022-11-20T00:33:15;97692.59;;;6.34;98.92
15694;BME280;7947;48.834;9.132;2022-11-20T00:36:21;97680.88;;;6.30;98.84
15694;BME280;7947;48.834;9.132;2022-11-20T00:39:24;97681.91;;;6.29;99.22
15694;BME280;7947;48.834;9.132;2022-11-20T00:42:27;97694.44;;;6.29;99.60
15694;BME280;7947;48.834;9.132;2022-11-20T00:45:30;97686.69;;;6.22;99.85
15694;BME280;7947;48.834;9.132;2022-11-20T00:48:33;97689.34;;;6.22;99.98
15694;BME280;7947;48.834;9.132;2022-11-20T00:51:37;97687.50;;;6.28;99.19
15694;BME280;7947;48.834;9.132;2022-11-20T00:54:39;97691.25;;;6.32;99.53
15694;BME280;7947;48.834;9.132;2022-11-20T00:57:42;97692.63;;;6.39;99.01
15694;BME280;7947;48.834;9.132;2022-11-20T01:00:45;97689.34;;;6.27;99.26
15694;BME280;7947;48.834;9.132;2022-11-20T01:03:49;97685.94;;;6.32;99.23
15694;BME280;7947;48.834;9.132;2022-11-20T01:06:54;97688.88;;;6.35;98.62
15694;BME280;7947;48.834;9.132;2022-11-20T01:09:56;97694.94;;;6.21;98.00
15694;BME280;7947;48.834;9.132;2022-11-20T01:12:59;97688.53;;;6.22;98.52
15694;BME280;7947;48.834;9.132;2022-11-20T01:16:19;97692.81;;;6.23;98.08
15694;BME280;7947;48.834;9.132;2022-11-20T01:19:23;97701.09;;;6.31;98.23
15694;BME280;7947;48.834;9.132;2022-11-20T01:22:27;97705.31;;;6.27;97.59
15694;BME280;7947;48.834;9.132;2022-11-20T01:25:30;97703.75;;;6.31;97.47
15694;BME280;7947;48.834;9.132;2022-11-20T01:28:33;97704.03;;;6.30;97.49
15694;BME280;7947;48.834;9.132;2022-11-20T01:31:37;97708.25;;;6.26;98.04
15694;BME280;7947;48.834;9.132;2022-11-20T01:34:39;97712.50;;;6.22;97.67
15694;BME280;7947;48.834;9.132;2022-11-20T01:37:43;97713.84;;;6.24;97.95
15694;BME280;7947;48.834;9.132;2022-11-20T01:40:54;97706.66;;;6.25;97.65
15694;BME280;7947;48.834;9.132;2022-11-20T01:43:57;97705.81;;;6.19;97.08
15694;BME280;7947;48.834;9.132;2022-11-20T01:47:02;97701.53;;;6.13;97.72
15694;BME280;7947;48.834;9.132;2022-11-20T01:50:12;97703.09;;;6.09;97.57
15694;BME280;7947;48.834;9.132;2022-11-20T01:53:21;97704.44;;;6.12;98.02
15694;BME280;7947;48.834;9.132;2022-11-20T01:56:26;97703.09;;;6.09;97.80
15694;BME280;7947;48.834;9.132;2022-11-20T01:59:31;97707.41;;;6.15;97.27
15694;BME280;7947;48.834;9.132;2022-11-20T02:02:34;97698.00;;;6.08;97.33
15694;BME280;7947;48.834;9.132;2022-11-20T02:05:41;97714.03;;;6.13;97.87
15694;BME280;7947;48.834;9.132;2022-11-20T02:08:48;97706.59;;;6.15;97.95
15694;BME280;7947;48.834;9.132;2022-11-20T02:11:52;97712.47;;;6.17;97.57
15694;BME280;7947;48.834;9.132;2022-11-20T02:14:54;97722.03;;;6.18;97.95
15694;BME280;7947;48.834;9.132;2022-11-20T02:17:56;97715.41;;;6.20;97.53
15694;BME280;7947;48.834;9.132;2022-11-20T02:21:03;97707.97;;;6.22;97.46
15694;BME280;7947;48.834;9.132;2022-11-20T02:24:10;97704.00;;;6.25;97.21
15694;BME280;7947;48.834;9.132;2022-11-20T02:27:15;97708.03;;;6.32;97.94
15694;BME280;7947;48.834;9.132;2022-11-20T02:30:19;97708.00;;;6.27;97.64
15694;BME280;7947;48.834;9.132;2022-11-20T02:33:22;97709.56;;;6.23;97.71
15694;BME280;7947;48.834;9.132;2022-11-20T02:36:26;97707.22;;;6.27;97.58
15694;BME280;7947;48.834;9.132;2022-11-20T02:39:31;97708.25;;;6.26;97.74
15694;BME280;7947;48.834;9.132;2022-11-20T02:42:33;97709.88;;;6.27;97.47
15694;BME280;7947;48.834;9.132;2022-11-20T02:45:36;97713.09;;;6.29;97.64
15694;BME280;7947;48.834;9.132;2022-11-20T02:48:39;97709.91;;;6.37;97.76
15694;BME280;7947;48.834;9.132;2022-11-20T02:51:42;97709.91;;;6.37;97.63
15694;BME280;7947;48.834;9.132;2022-11-20T02:54:46;97711.00;;;6.41;98.18
15694;BME280;7947;48.834;9.132;2022-11-20T02:57:48;97712.09;;;6.45;97.87
15694;BME280;7947;48.834;9.132;2022-11-20T03:00:52;97706.50;;;6.47;98.16
15694;BME280;7947;48.834;9.132;2022-11-20T03:03:54;97707.03;;;6.49;97.63
15694;BME280;7947;48.834;9.132;2022-11-20T03:06:57;97699.03;;;6.44;97.92
15694;BME280;7947;48.834;9.132;2022-11-20T03:10:02;97699.03;;;6.44;97.96
15694;BME280;7947;48.834;9.132;2022-11-20T03:13:05;97696.66;;;6.42;98.34
15694;BME280;7947;48.834;9.132;2022-11-20T03:16:10;97693.97;;;6.42;98.78
15694;BME280;7947;48.834;9.132;2022-11-20T03:19:13;97693.72;;;6.44;98.51
15694;BME280;7947;48.834;9.132;2022-11-20T03:22:15;97689.47;;;6.43;98.51
15694;BME280;7947;48.834;9.132;2022-11-20T03:25:20;97685.72;;;6.44;98.04
15694;BME280;7947;48.834;9.132;2022-11-20T03:28:22;97691.56;;;6.41;96.99
15694;BME280;7947;48.834;9.132;2022-11-20T03:31:27;97689.16;;;6.39;97.21
15694;BME280;7947;48.834;9.132;2022-11-20T03:34:30;97694.19;;;6.35;96.72
15694;BME280;7947;48.834;9.132;2022-11-20T03:37:33;97697.66;;;6.36;96.50
15694;BME280;7947;48.834;9.132;2022-11-20T03:40:37;97693.16;;;6.36;96.09
15694;BME280;7947;48.834;9.132;2022-11-20T03:43:40;97690.22;;;6.38;96.17
15694;BME280;7947;48.834;9.132;2022-11-20T03:46:43;97683.06;;;6.44;94.24
15694;BME280;7947;48.834;9.132;2022-11-20T03:49:45;97684.69;;;6.50;93.63
15694;BME280;7947;48.834;9.132;2022-11-20T03:52:48;97679.13;;;6.56;93.25
15694;BME280;7947;48.834;9.132;2022-11-20T03:55:52;97683.13;;;6.59;92.45
15694;BME280;7947;48.834;9.132;2022-11-20T03:58:55;97678.06;;;6.57;91.52
15694;BME280;7947;48.834;9.132;2022-11-20T04:01:58;97682.03;;;6.50;92.13
15694;BME280;7947;48.834;9.132;2022-11-20T04:05:00;97686.00;;;6.42;92.42
15694;BME280;7947;48.834;9.132;2022-11-20T04:08:04;97689.94;;;6.34;92.46
15694;BME280;7947;48.834;9.132;2022-11-20T04:11:13;97688.59;;;6.32;92.13
15694;BME280;7947;48.834;9.132;2022-11-20T04:14:16;97680.34;;;6.33;93.50
15694;BME280;7947;48.834;9.132;2022-11-20T04:17:19;97680.31;;;6.28;93.19
15694;BME280;7947;48.834;9.132;2022-11-20T04:20:21;97675.25;;;6.27;94.08
15694;BME280;7947;48.834;9.132;2022-11-20T04:23:24;97677.38;;;6.25;94.41
15694;BME280;7947;48.834;9.132;2022-11-20T04:26:31;97671.25;;;6.24;94.14
15694;BME280;7947;48.834;9.132;2022-11-20T04:29:34;97672.28;;;6.23;94.23
15694;BME280;7947;48.834;9.132;2022-11-20T04:32:36;97670.97;;;6.26;94.92
15694;BME280;7947;48.834;9.132;2022-11-20T04:35:39;97673.94;;;6.29;94.23
15694;BME280;7947;48.834;9.132;2022-11-20T04:38:42;97673.09;;;6.24;94.32
15694;BME280;7947;48.834;9.132;2022-11-20T04:41:46;97677.41;;;6.30;93.90
15694;BME280;7947;48.834;9.132;2022-11-20T04:44:49;97671.25;;;6.29;93.98
15694;BME280;7947;48.834;9.132;2022-11-20T04:47:51;97669.94;;;6.32;93.91
15694;BME280;7947;48.834;9.132;2022-11-20T04:50:55;97662.53;;;6.39;93.36
15694;BME280;7947;48.834;9.132;2022-11-20T04:53:58;97669.72;;;6.38;92.62
15694;BME280;7947;48.834;9.132;2022-11-20T04:57:02;97666.53;;;6.42;92.74
15694;BME280;7947;48.834;9.132;2022-11-20T05:00:06;97666.31;;;6.48;93.26
15694;BME280;7947;48.834;9.132;2022-11-20T05:03:09;97666.88;;;6.55;92.07
15694;BME280;7947;48.834;9.132;2022-11-20T05:06:13;97669.25;;;6.52;92.34
15694;BME280;7947;48.834;9.132;2022-11-20T05:09:16;97669.22;;;6.47;92.78
15694;BME280;7947;48.834;9.132;2022-11-20T05:12:20;97664.13;;;6.40;93.17
15694;BME280;7947;48.834;9.132;2022-11-20T05:15:23;97658.53;;;6.36;93.60
15694;BME280;7947;48.834;9.132;2022-11-20T05:18:26;97660.41;;;6.41;93.65
15694;BME280;7947;48.834;9.132;2022-11-20T05:21:30;97658.53;;;6.42;94.21
15694;BME280;7947;48.834;9.132;2022-11-20T05:24:33;97665.19;;;6.39;94.07
15694;BME280;7947;48.834;9.132;2022-11-20T05:27:37;97666.25;;;6.38;94.90
15694;BME280;7947;48.834;9.132;2022-11-20T05:30:40;97669.47;;;6.45;93.80
15694;BME280;7947;48.834;9.132;2022-11-20T05:33:43;97670.03;;;6.47;93.36
15694;BME280;7947;48.834;9.132;2022-11-20T05:36:46;97671.63;;;6.48;93.11
15694;BME280;7947;48.834;9.132;2022-11-20T05:39:49;97666.09;;;6.60;93.10
15694;BME280;7947;48.834;9.132;2022-11-20T05:42:53;97675.44;;;6.67;92.00
15694;BME280;7947;48.834;9.132;2022-11-20T05:45:56;97675.72;;;6.71;91.15
15694;BME280;7947;48.834;9.132;2022-11-20T05:48:58;97666.16;;;6.75;90.77
15694;BME280;7947;48.834;9.132;2022-11-20T05:52:01;97665.13;;;6.86;89.92
15694;BME280;7947;48.834;9.132;2022-11-20T05:55:04;97665.13;;;6.86;89.96
15694;BME280;7947;48.834;9.132;2022-11-20T05:58:09;97668.63;;;6.96;89.56
15694;BME280;7947;48.834;9.132;2022-11-20T06:01:13;97667.31;;;7.04;89.08
15694;BME280;7947;48.834;9.132;2022-11-20T06:04:16;97664.38;;;7.05;88.53
15694;BME280;7947;48.834;9.132;2022-11-20T06:07:19;97671.31;;;7.06;88.14
15694;BME280;7947;48.834;9.132;2022-11-20T06:10:22;97671.81;;;7.08;88.55
15694;BME280;7947;48.834;9.132;2022-11-20T06:13:29;97666.00;;;7.11;88.16
15694;BME280;7947;48.834;9.132;2022-11-20T06:16:31;97662.25;;;7.12;88.00
15694;BME280;7947;48.834;9.132;2022-11-20T06:19:34;97656.91;;;7.12;87.78
15694;BME280;7947;48.834;9.132;2022-11-20T06:22:38;97664.13;;;7.22;87.07
15694;BME280;7947;48.834;9.132;2022-11-20T06:25:42;97660.91;;;7.15;87.25
15694;BME280;7947;48.834;9.132;2022-11-20T06:28:47;97661.19;;;7.13;86.92
15694;BME280;7947;48.834;9.132;2022-11-20T06:31:50;97658.22;;;7.05;87.99
15694;BME280;7947;48.834;9.132;2022-11-20T06:34:53;97650.50;;;7.08;87.38
15694;BME280;7947;48.834;9.132;2022-11-20T06:37:55;97650.00;;;7.11;87.55
15694;BME280;7947;48.834;9.132;2022-11-20T06:40:58;97656.41;;;7.15;87.73
15694;BME280;7947;48.834;9.132;2022-11-20T06:44:03;97658.25;;;7.15;87.65
15694;BME280;7947;48.834;9.132;2022-11-20T06:47:06;97663.31;;;7.16;87.43
15694;BME280;7947;48.834;9.132;2022-11-20T06:50:09;97667.84;;;7.11;87.58
15694;BME280;7947;48.834;9.132;2022-11-20T06:53:12;97661.69;;;7.10;87.92
15694;BME280;7947;48.834;9.132;2022-11-20T06:56:14;97670.25;;;7.07;88.41
15694;BME280;7947;48.834;9.132;2022-11-20T06:59:18;97667.34;;;7.14;87.48
15694;BME280;7947;48.834;9.132;2022-11-20T07:02:23;97671.59;;;7.15;87.26
15694;BME280;7947;48.834;9.132;2022-11-20T07:05:25;97669.72;;;7.15;87.56
15694;BME280;7947;48.834;9.132;2022-11-20T07:08:28;97670.81;;;7.19;87.34
15694;BME280;7947;48.834;9.132;2022-11-20T07:11:31;97670.53;;;7.26;86.60
15694;BME280;7947;48.834;9.132;2022-11-20T07:14:35;97655.88;;;7.23;86.41
15694;BME280;7947;48.834;9.132;2022-11-20T07:17:38;97662.81;;;7.35;85.76
15694;BME280;7947;48.834;9.132;2022-11-20T07:20:40;97664.44;;;7.41;85.54
15694;BME280;7947;48.834;9.132;2022-11-20T07:23:43;97673.22;;;7.46;84.46
15694;BME280;7947;48.834;9.132;2022-11-20T07:26:46;97667.38;;;7.44;84.74
15694;BME280;7947;48.834;9.132;2022-11-20T07:29:51;97678.31;;;7.48;84.83
15694;BME280;7947;48.834;9.132;2022-11-20T07:32:55;97676.44;;;7.48;84.35
15694;BME280;7947;48.834;9.132;2022-11-20T07:35:58;97683.63;;;7.48;84.51
15694;BME280;7947;48.834;9.132;2022-11-20T07:39:28;97677.78;;;7.56;84.62
15694;BME280;7947;48.834;9.132;2022-11-20T07:42:31;97685.25;;;7.54;85.40
15694;BME280;7947;48.834;9.132;2022-11-20T07:45:35;97682.06;;;7.57;86.46
15694;BME280;7947;48.834;9.132;2022-11-20T07:48:38;97681.00;;;7.68;86.34
15694;BME280;7947;48.834;9.132;2022-11-20T07:51:41;97685.00;;;7.60;86.30
15694;BME280;7947;48.834;9.132;2022-11-20T07:54:44;97685.53;;;7.62;86.96
15694;BME280;7947;48.834;9.132;2022-11-20T07:57:54;97699.91;;;7.61;87.18
15694;BME280;7947;48.834;9.132;2022-11-20T08:00:58;97692.44;;;7.63;87.40
15694;BME280;7947;48.834;9.132;2022-11-20T08:04:01;97695.66;;;7.65;86.62
15694;BME280;7947;48.834;9.132;2022-11-20T08:07:03;97700.22;;;7.70;86.77
15694;BME280;7947;48.834;9.132;2022-11-20T08:10:08;97701.28;;;7.74;86.88
15694;BME280;7947;48.834;9.132;2022-11-20T08:13:11;97697.53;;;7.75;86.41
15694;BME280;7947;48.834;9.132;2022-11-20T08:16:33;97696.72;;;7.79;85.62
15694;BME280;7947;48.834;9.132;2022-11-20T08:19:35;97706.06;;;7.87;85.63
15694;BME280;7947;48.834;9.132;2022-11-20T08:22:43;97699.41;;;7.94;85.60
15694;BME280;7947;48.834;9.132;2022-11-20T08:25:49;97702.06;;;8.04;84.12
15694;BME280;7947;48.834;9.132;2022-11-20T08:28:53;97705.78;;;8.03;84.86
15694;BME280;7947;48.834;9.132;2022-11-20T08:31:58;97715.94;;;8.11;84.79
15694;BME280;7947;48.834;9.132;2022-11-20T08:35:00;97704.19;;;8.17;83.91
15694;BME280;7947;48.834;9.132;2022-11-20T08:38:04;97710.34;;;8.28;82.97
15694;BME280;7947;48.834;9.132;2022-11-20T08:41:07;97714.34;;;8.36;83.05
15694;BME280;7947;48.834;9.132;2022-11-20T08:44:28;97710.56;;;8.47;82.77
15694;BME280;7947;48.834;9.132;2022-11-20T08:47:32;97706.81;;;8.53;82.12
15694;BME280;7947;48.834;9.132;2022-11-20T08:50:34;97714.53;;;8.64;82.01
15694;BME280;7947;48.834;9.132;2022-11-20T08:53:37;97716.16;;;8.55;82.47
15694;BME280;7947;48.834;9.132;2022-11-20T08:56:40;97720.16;;;8.63;81.98
15694;BME280;7947;48.834;9.132;2022-11-20T08:59:43;97727.59;;;8.66;80.77
15694;BME280;7947;48.834;9.132;2022-11-20T09:03:07;97726.31;;;8.53;81.59
15694;BME280;7947;48.834;9.132;2022-11-20T09:06:10;97732.19;;;8.50;82.20
15694;BME280;7947;48.834;9.132;2022-11-20T09:09:12;97726.03;;;8.55;81.64
15694;BME280;7947;48.834;9.132;2022-11-20T09:12:15;97729.78;;;8.54;81.99
15694;BME280;7947;48.834;9.132;2022-11-20T09:15:18;97724.97;;;8.61;82.64
15694;BME280;7947;48.834;9.132;2022-11-20T09:18:23;97739.38;;;8.65;82.53
15694;BME280;7947;48.834;9.132;2022-11-20T09:21:26;97730.28;;;8.66;82.38
15694;BME280;7947;48.834;9.132;2022-11-20T09:24:29;97739.63;;;8.63;81.71
15694;BME280;7947;48.834;9.132;2022-11-20T09:27:32;97739.13;;;8.66;81.91
15694;BME280;7947;48.834;9.132;2022-11-20T09:30:35;97743.94;;;8.59;82.73
15694;BME280;7947;48.834;9.132;2022-11-20T09:33:39;97743.13;;;8.54;81.75
15694;BME280;7947;48.834;9.132;2022-11-20T09:36:41;97743.97;;;8.49;82.63
15694;BME280;7947;48.834;9.132;2022-11-20T09:39:44;97746.09;;;8.52;82.50
15694;BME280;7947;48.834;9.132;2022-11-20T09:42:54;97756.78;;;8.47;83.09
15694;BME280;7947;48.834;9.132;2022-11-20T09:46:05;97758.41;;;8.43;83.96
15694;BME280;7947;48.834;9.132;2022-11-20T09:49:23;97751.72;;;8.41;83.28
15694;BME280;7947;48.834;9.132;2022-11-20T09:52:40;97762.41;;;8.46;83.33
15694;BME280;7947;48.834;9.132;2022-11-20T09:55:45;97766.41;;;8.43;84.46
15694;BME280;7947;48.834;9.132;2022-11-20T09:58:50;97758.41;;;8.33;85.87
15694;BME280;7947;48.834;9.132;2022-11-20T10:01:55;97749.06;;;8.36;85.73
15694;BME280;7947;48.834;9.132;2022-11-20T10:05:03;97757.88;;;8.41;85.84
15694;BME280;7947;48.834;9.132;2022-11-20T10:08:15;97761.88;;;8.34;86.35
15694;BME280;7947;48.834;9.132;2022-11-20T10:11:27;97756.00;;;8.42;85.18
15694;BME280;7947;48.834;9.132;2022-11-20T10:14:43;97761.34;;;8.37;84.84
15694;BME280;7947;48.834;9.132;2022-11-20T10:18:08;97765.91;;;8.36;85.19
15694;BME280;7947;48.834;9.132;2022-11-20T10:21:20;97768.56;;;8.31;86.16
15694;BME280;7947;48.834;9.132;2022-11-20T10:24:52;97774.44;;;8.33;86.66
15694;BME280;7947;48.834;9.132;2022-11-20T10:28:15;97771.22;;;8.31;88.45
15694;BME280;7947;48.834;9.132;2022-11-20T10:31:28;97765.34;;;8.29;89.05
15694;BME280;7947;48.834;9.132;2022-11-20T10:34:39;97763.50;;;8.30;89.63
15694;BME280;7947;48.834;9.132;2022-11-20T10:37:51;97769.63;;;8.35;89.86
15694;BME280;7947;48.834;9.132;2022-11-20T10:40:59;97776.03;;;8.29;90.00
15694;BME280;7947;48.834;9.132;2022-11-20T10:44:20;97765.09;;;8.26;90.31
15694;BME280;7947;48.834;9.132;2022-11-20T10:47:37;97756.53;;;8.23;89.14
15694;BME280;7947;48.834;9.132;2022-11-20T10:50:48;97758.13;;;8.14;88.74
15694;BME280;7947;48.834;9.132;2022-11-20T10:53:58;97757.06;;;8.10;89.24
15694;BME280;7947;48.834;9.132;2022-11-20T10:57:13;97754.13;;;8.12;89.52
15694;BME280;7947;48.834;9.132;2022-11-20T11:00:16;97755.19;;;8.11;90.63
15694;BME280;7947;48.834;9.132;2022-11-20T11:03:23;97754.94;;;8.12;91.58
15694;BME280;7947;48.834;9.132;2022-11-20T11:06:33;97753.03;;;8.13;91.90
15694;BME280;7947;48.834;9.132;2022-11-20T11:09:43;97755.19;;;8.11;92.51
15694;BME280;7947;48.834;9.132;2022-11-20T11:12:47;97754.13;;;8.12;92.92
15694;BME280;7947;48.834;9.132;2022-11-20T11:15:50;97743.97;;;8.14;92.49
15694;BME280;7947;48.834;9.132;2022-11-20T11:19:03;97744.53;;;8.31;91.68
15694;BME280;7947;48.834;9.132;2022-11-20T11:22:10;97740.22;;;8.40;91.32
15694;BME280;7947;48.834;9.132;2022-11-20T11:25:28;97722.28;;;8.61;90.84
15694;BME280;7947;48.834;9.132;2022-11-20T11:28:31;97719.75;;;8.99;90.09
15694;BME280;7947;48.834;9.132;2022-11-20T11:31:34;97709.84;;;9.49;88.82
15694;BME280;7947;48.834;9.132;2022-11-20T11:34:37;97710.47;;;9.74;87.28
15694;BME280;7947;48.834;9.132;2022-11-20T11:37:40;97693.75;;;10.21;84.51
15694;BME280;7947;48.834;9.132;2022-11-20T11:40:46;97693.41;;;10.80;81.95
15694;BME280;7947;48.834;9.132;2022-11-20T11:43:52;97683.47;;;11.41;78.51
15694;BME280;7947;48.834;9.132;2022-11-20T11:47:22;97673.25;;;12.26;72.98
15694;BME280;7947;48.834;9.132;2022-11-20T11:50:26;97674.31;;;12.25;71.91
15694;BME280;7947;48.834;9.132;2022-11-20T11:53:30;97676.06;;;12.03;69.28
15694;BME280;7947;48.834;9.132;2022-11-20T11:56:34;97671.31;;;11.62;70.47
15694;BME280;7947;48.834;9.132;2022-11-20T11:59:49;97674.81;;;11.26;71.27
15694;BME280;7947;48.834;9.132;2022-11-20T12:03:00;97667.56;;;10.84;73.44
15694;BME280;7947;48.834;9.132;2022-11-20T12:06:11;97673.66;;;10.71;73.56
15694;BME280;7947;48.834;9.132;2022-11-20T12:09:16;97668.28;;;10.71;73.48
15694;BME280;7947;48.834;9.132;2022-11-20T12:12:26;97672.44;;;11.43;71.30
15694;BME280;7947;48.834;9.132;2022-11-20T12:15:31;97665.63;;;12.01;68.04
15694;BME280;7947;48.834;9.132;2022-11-20T12:18:36;97659.81;;;12.94;64.64
15694;BME280;7947;48.834;9.132;2022-11-20T12:21:51;97647.50;;;14.48;57.86
15694;BME280;7947;48.834;9.132;2022-11-20T12:25:07;97643.97;;;15.52;52.27
15694;BME280;7947;48.834;9.132;2022-11-20T12:28:30;97640.16;;;15.61;48.88
15694;BME280;7947;48.834;9.132;2022-11-20T12:31:49;97643.66;;;16.42;47.68
15694;BME280;7947;48.834;9.132;2022-11-20T12:35:01;97635.41;;;17.55;44.23
15694;BME280;7947;48.834;9.132;2022-11-20T12:38:42;97628.84;;;18.10;41.20
15694;BME280;7947;48.834;9.132;2022-11-20T12:41:54;97633.28;;;17.61;43.16
15694;BME280;7947;48.834;9.132;2022-11-20T12:45:50;97641.81;;;17.51;41.76
15694;BME280;7947;48.834;9.132;2022-11-20T12:49:13;97653.66;;;15.44;45.65
15694;BME280;7947;48.834;9.132;2022-11-20T12:52:31;97651.50;;;13.53;49.63
15694;BME280;7947;48.834;9.132;2022-11-20T12:55:47;97652.25;;;13.10;52.20
15694;BME280;7947;48.834;9.132;2022-11-20T12:59:04;97642.66;;;13.39;50.46
15694;BME280;7947;48.834;9.132;2022-11-20T13:02:19;97645.56;;;12.80;52.43
15694;BME280;7947;48.834;9.132;2022-11-20T13:05:31;97657.78;;;12.18;54.03
15694;BME280;7947;48.834;9.132;2022-11-20T13:08:39;97648.63;;;11.55;56.57
15694;BME280;7947;48.834;9.132;2022-11-20T13:11:44;97666.91;;;10.97;59.45
15694;BME280;7947;48.834;9.132;2022-11-20T13:14:53;97662.38;;;10.50;61.15
15694;BME280;7947;48.834;9.132;2022-11-20T13:18:01;97654.59;;;10.25;63.14
15694;BME280;7947;48.834;9.132;2022-11-20T13:21:14;97644.28;;;10.37;61.97
15694;BME280;7947;48.834;9.132;2022-11-20T13:24:23;97659.72;;;10.69;61.75
15694;BME280;7947;48.834;9.132;2022-11-20T13:27:27;97634.97;;;10.77;62.21
15694;BME280;7947;48.834;9.132;2022-11-20T13:30:33;97636.97;;;11.09;61.62
15694;BME280;7947;48.834;9.132;2022-11-20T13:33:38;97629.75;;;11.23;60.24
15694;BME280;7947;48.834;9.132;2022-11-20T13:36:50;97623.81;;;11.26;59.84
15694;BME280;7947;48.834;9.132;2022-11-20T13:40:05;97613.22;;;11.16;58.48
15694;BME280;7947;48.834;9.132;2022-11-20T13:43:16;97624.41;;;11.04;57.99
15694;BME280;7947;48.834;9.132;2022-11-20T13:46:20;97615.19;;;10.92;58.86
15694;BME280;7947;48.834;9.132;2022-11-20T13:49:31;97617.72;;;10.83;58.93
15694;BME280;7947;48.834;9.132;2022-11-20T13:52:41;97628.75;;;10.58;61.61
15694;BME280;7947;48.834;9.132;2022-11-20T13:55:54;97625.47;;;10.42;61.34
15694;BME280;7947;48.834;9.132;2022-11-20T13:59:02;97627.13;;;10.38;61.44
15694;BME280;7947;48.834;9.132;2022-11-20T14:02:18;97626.44;;;10.28;62.12
15694;BME280;7947;48.834;9.132;2022-11-20T14:05:23;97630.06;;;10.13;62.31
15694;BME280;7947;48.834;9.132;2022-11-20T14:08:30;97642.97;;;10.06;63.51
15694;BME280;7947;48.834;9.132;2022-11-20T14:11:35;97637.47;;;9.92;65.44
15694;BME280;7947;48.834;9.132;2022-11-20T14:14:48;97625.88;;;9.73;65.87
15694;BME280;7947;48.834;9.132;2022-11-20T14:17:52;97622.41;;;9.68;66.48
15694;BME280;7947;48.834;9.132;2022-11-20T14:21:00;97619.78;;;9.63;66.88
15694;BME280;7947;48.834;9.132;2022-11-20T14:24:04;97620.91;;;9.57;67.76
15694;BME280;7947;48.834;9.132;2022-11-20T14:27:12;97620.69;;;9.53;67.96
15694;BME280;7947;48.834;9.132;2022-11-20T14:30:17;97628.59;;;9.35;69.31
15694;BME280;7947;48.834;9.132;2022-11-20T14:33:21;97628.63;;;9.30;69.37
15694;BME280;7947;48.834;9.132;2022-11-20T14:36:27;97621.97;;;9.22;70.21
15694;BME280;7947;48.834;9.132;2022-11-20T14:39:32;97620.34;;;9.26;69.02
15694;BME280;7947;48.834;9.132;2022-11-20T14:42:36;97622.50;;;9.24;69.08
15694;BME280;7947;48.834;9.132;2022-11-20T14:45:38;97616.34;;;9.24;69.59
15694;BME280;7947;48.834;9.132;2022-11-20T14:48:43;97608.59;;;9.22;69.83
15694;BME280;7947;48.834;9.132;2022-11-20T14:51:58;97601.16;;;9.14;69.90
15694;BME280;7947;48.834;9.132;2022-11-20T14:55:02;97588.66;;;9.09;70.42
15694;BME280;7947;48.834;9.132;2022-11-20T14:58:06;97589.19;;;9.06;71.11
15694;BME280;7947;48.834;9.132;2022-11-20T15:01:12;97582.78;;;9.02;71.48
15694;BME280;7947;48.834;9.132;2022-11-20T15:04:15;97582.03;;;8.97;72.24
15694;BME280;7947;48.834;9.132;2022-11-20T15:07:27;97580.97;;;8.98;72.30
15694;BME280;7947;48.834;9.132;2022-11-20T15:10:30;97572.72;;;8.89;72.75
15694;BME280;7947;48.834;9.132;2022-11-20T15:13:36;97571.97;;;8.84;73.75
15694;BME280;7947;48.834;9.132;2022-11-20T15:16:39;97573.06;;;8.78;73.14
15694;BME280;7947;48.834;9.132;2022-11-20T15:19:43;97571.44;;;8.77;73.95
15694;BME280;7947;48.834;9.132;2022-11-20T15:22:47;97571.81;;;8.60;74.60
15694;BME280;7947;48.834;9.132;2022-11-20T15:25:49;97564.91;;;8.54;75.17
15694;BME280;7947;48.834;9.132;2022-11-20T15:28:53;97570.56;;;8.43;75.54
15694;BME280;7947;48.834;9.132;2022-11-20T15:31:56;97576.72;;;8.38;75.90
15694;BME280;7947;48.834;9.132;2022-11-20T15:34:59;97577.81;;;8.37;75.97
15694;BME280;7947;48.834;9.132;2022-11-20T15:38:03;97561.81;;;8.32;76.13
15694;BME280;7947;48.834;9.132;2022-11-20T15:41:06;97564.78;;;8.26;76.79
15694;BME280;7947;48.834;9.132;2022-11-20T15:44:09;97557.56;;;8.16;77.54
15694;BME280;7947;48.834;9.132;2022-11-20T15:47:12;97559.22;;;8.02;78.41
15694;BME280;7947;48.834;9.132;2022-11-20T15:50:17;97565.66;;;7.86;78.89
15694;BME280;7947;48.834;9.132;2022-11-20T15:53:21;97562.78;;;7.72;79.06
15694;BME280;7947;48.834;9.132;2022-11-20T15:56:24;97564.94;;;7.60;79.36
15694;BME280;7947;48.834;9.132;2022-11-20T15:59:27;97555.06;;;7.51;80.59
15694;BME280;7947;48.834;9.132;2022-11-20T16:02:29;97559.31;;;7.42;81.00
15694;BME280;7947;48.834;9.132;2022-11-20T16:05:32;97556.13;;;7.35;82.00
15694;BME280;7947;48.834;9.132;2022-11-20T16:08:36;97556.41;;;7.33;82.65
15694;BME280;7947;48.834;9.132;2022-11-20T16:11:39;97554.00;;;7.37;82.93
15694;BME280;7947;48.834;9.132;2022-11-20T16:14:41;97545.22;;;7.41;82.59
15694;BME280;7947;48.834;9.132;2022-11-20T16:18:02;97550.50;;;7.51;82.53
15694;BME280;7947;48.834;9.132;2022-11-20T16:21:10;97550.25;;;7.48;82.58
15694;BME280;7947;48.834;9.132;2022-11-20T16:24:15;97531.59;;;7.48;82.50
15694;BME280;7947;48.834;9.132;2022-11-20T16:27:18;97539.03;;;7.56;81.89
15694;BME280;7947;48.834;9.132;2022-11-20T16:30:21;97536.38;;;7.66;80.55
15694;BME280;7947;48.834;9.132;2022-11-20T16:33:23;97538.75;;;7.72;80.34
15694;BME280;7947;48.834;9.132;2022-11-20T16:36:27;97534.19;;;7.73;80.19
15694;BME280;7947;48.834;9.132;2022-11-20T16:39:32;97536.88;;;7.78;79.89
15694;BME280;7947;48.834;9.132;2022-11-20T16:42:36;97536.88;;;7.78;79.98
15694;BME280;7947;48.834;9.132;2022-11-20T16:45:43;97530.97;;;7.81;80.25
15694;BME280;7947;48.834;9.132;2022-11-20T16:48:52;97528.84;;;7.83;80.96
15694;BME280;7947;48.834;9.132;2022-11-20T16:51:54;97524.84;;;7.85;80.27